createdAt,value
2017-04-04T00:00:58.413Z,0
2017-04-04T00:02:09.401Z,0
2017-04-04T00:03:20.386Z,0
2017-04-04T00:04:31.624Z,0
2017-04-04T00:05:42.608Z,0
2017-04-04T00:06:53.637Z,0
2017-04-04T00:08:04.619Z,0
2017-04-04T00:09:15.599Z,0
2017-04-04T00:10:26.633Z,0
2017-04-04T00:11:37.668Z,0
2017-04-04T00:12:49.096Z,0
2017-04-04T00:14:00.083Z,0
2017-04-04T00:15:11.265Z,0
2017-04-04T00:16:22.247Z,0
2017-04-04T00:17:33.236Z,0
2017-04-04T00:18:44.421Z,0
2017-04-04T00:19:55.395Z,0
2017-04-04T00:21:06.836Z,0
2017-04-04T00:22:17.818Z,0
2017-04-04T00:23:28.795Z,0
2017-04-04T00:24:39.789Z,0
2017-04-04T00:25:50.775Z,0
2017-04-04T00:27:01.969Z,0
2017-04-04T00:28:12.951Z,0
2017-04-04T00:29:23.936Z,0
2017-04-04T00:30:35.120Z,0
2017-04-04T00:31:46.156Z,0
2017-04-04T00:32:57.136Z,0
2017-04-04T00:34:08.122Z,0
2017-04-04T00:35:19.105Z,0
2017-04-04T00:36:30.286Z,0
2017-04-04T00:37:41.310Z,0
2017-04-04T00:38:52.487Z,0
2017-04-04T00:40:03.482Z,0
2017-04-04T00:41:14.464Z,0
2017-04-04T00:42:25.501Z,0
2017-04-04T00:43:36.701Z,0
2017-04-04T00:44:47.891Z,0
2017-04-04T00:45:58.873Z,0
2017-04-04T00:47:10.063Z,0
2017-04-04T00:48:21.298Z,0
2017-04-04T00:49:32.279Z,0
2017-04-04T00:50:43.465Z,0
2017-04-04T00:51:54.660Z,0
2017-04-04T00:53:05.640Z,0
2017-04-04T00:54:16.825Z,0
2017-04-04T00:55:27.809Z,0
2017-04-04T00:56:38.802Z,0
2017-04-04T00:57:49.783Z,0
2017-04-04T00:59:00.823Z,0
2017-04-04T01:00:12.007Z,0
2017-04-04T01:01:22.989Z,0
2017-04-04T01:02:34.174Z,0
2017-04-04T01:03:45.160Z,0
2017-04-04T01:04:56.143Z,0
2017-04-04T01:06:07.324Z,0
2017-04-04T01:07:18.317Z,0
2017-04-04T01:08:29.300Z,0
2017-04-04T01:09:40.384Z,0
2017-04-04T01:10:51.403Z,0
2017-04-04T01:12:02.433Z,0
2017-04-04T01:13:13.614Z,0
2017-04-04T01:14:24.594Z,0
2017-04-04T01:15:35.569Z,0
2017-04-04T01:16:46.547Z,0
2017-04-04T01:17:57.535Z,0
2017-04-04T01:19:08.527Z,0
2017-04-04T01:20:19.966Z,0
2017-04-04T01:21:30.953Z,0
2017-04-04T01:22:42.135Z,0
2017-04-04T01:23:53.113Z,0
2017-04-04T01:25:04.096Z,0
2017-04-04T01:26:15.081Z,0
2017-04-04T01:27:26.064Z,0
2017-04-04T01:28:37.047Z,0
2017-04-04T01:29:48.051Z,0
2017-04-04T01:30:59.039Z,0
2017-04-04T01:32:10.022Z,0
2017-04-04T01:33:21.207Z,0
2017-04-04T01:34:32.197Z,0
2017-04-04T01:35:43.182Z,0
2017-04-04T01:36:54.212Z,0
2017-04-04T01:38:05.197Z,0
2017-04-04T01:39:16.185Z,0
2017-04-04T01:40:27.169Z,0
2017-04-04T01:41:38.153Z,0
2017-04-04T01:42:49.127Z,0
2017-04-04T01:44:00.111Z,0
2017-04-04T01:45:11.107Z,0
2017-04-04T01:46:22.099Z,0
2017-04-04T01:47:33.534Z,0
2017-04-04T01:48:44.514Z,0
2017-04-04T01:49:55.704Z,0
2017-04-04T01:51:06.690Z,0
2017-04-04T01:52:17.878Z,0
2017-04-04T01:53:29.065Z,0
2017-04-04T01:54:40.252Z,0
2017-04-04T01:55:51.234Z,0
2017-04-04T01:57:02.215Z,0
2017-04-04T01:58:13.446Z,0
2017-04-04T01:59:24.430Z,0
2017-04-04T02:00:35.412Z,0
2017-04-04T02:01:46.398Z,0
2017-04-04T02:02:57.382Z,0
2017-04-04T02:04:08.367Z,0
2017-04-04T02:05:19.350Z,0
2017-04-04T02:06:30.337Z,0
2017-04-04T02:07:41.521Z,0
2017-04-04T02:08:52.711Z,0
2017-04-04T02:10:03.700Z,0
2017-04-04T02:11:14.686Z,0
2017-04-04T02:12:25.676Z,0
2017-04-04T02:13:36.663Z,0
2017-04-04T02:14:47.697Z,0
2017-04-04T02:15:58.674Z,0
2017-04-04T02:17:09.657Z,0
2017-04-04T02:18:20.643Z,0
2017-04-04T02:19:31.626Z,0
2017-04-04T02:20:42.665Z,0
2017-04-04T02:21:53.654Z,0
2017-04-04T02:23:04.640Z,0
2017-04-04T02:24:15.630Z,0
2017-04-04T02:25:26.859Z,0
2017-04-04T02:26:38.244Z,0
2017-04-04T02:27:49.228Z,0
2017-04-04T02:29:00.213Z,0
2017-04-04T02:30:11.199Z,0
2017-04-04T02:31:22.179Z,0
2017-04-04T02:32:33.171Z,0
2017-04-04T02:33:44.351Z,0
2017-04-04T02:34:55.341Z,0
2017-04-04T02:36:06.575Z,0
2017-04-04T02:37:17.568Z,0
2017-04-04T02:38:28.548Z,0
2017-04-04T02:39:39.520Z,0
2017-04-04T02:40:50.500Z,0
2017-04-04T02:42:01.533Z,0
2017-04-04T02:43:12.514Z,0
2017-04-04T02:44:23.697Z,0
2017-04-04T02:45:34.876Z,0
2017-04-04T02:46:45.861Z,0
2017-04-04T02:47:56.851Z,0
2017-04-04T02:49:07.845Z,0
2017-04-04T02:50:19.027Z,0
2017-04-04T02:51:30.208Z,0
2017-04-04T02:52:41.240Z,0
2017-04-04T02:53:52.626Z,0
2017-04-04T02:55:03.822Z,0
2017-04-04T02:56:14.819Z,0
2017-04-04T02:57:26.007Z,0
2017-04-04T02:58:36.989Z,0
2017-04-04T02:59:47.979Z,0
2017-04-04T03:00:59.173Z,0
2017-04-04T03:02:10.170Z,0
2017-04-04T03:03:21.202Z,0
2017-04-04T03:04:32.390Z,0
2017-04-04T03:05:43.372Z,0
2017-04-04T03:06:54.557Z,0
2017-04-04T03:08:05.532Z,0
2017-04-04T03:09:16.520Z,0
2017-04-04T03:10:27.509Z,0
2017-04-04T03:11:38.489Z,0
2017-04-04T03:12:49.475Z,0
2017-04-04T03:14:00.705Z,0
2017-04-04T03:15:11.684Z,0
2017-04-04T03:16:22.679Z,0
2017-04-04T03:17:33.862Z,0
2017-04-04T03:18:44.839Z,0
2017-04-04T03:19:55.827Z,0
2017-04-04T03:21:07.022Z,0
2017-04-04T03:22:18.050Z,0
2017-04-04T03:23:29.033Z,0
2017-04-04T03:24:40.014Z,0
2017-04-04T03:25:50.994Z,0
2017-04-04T03:27:01.978Z,0
2017-04-04T03:28:13.164Z,0
2017-04-04T03:29:24.146Z,0
2017-04-04T03:30:35.377Z,0
2017-04-04T03:31:46.364Z,0
2017-04-04T03:32:57.351Z,0
2017-04-04T03:34:08.340Z,0
2017-04-04T03:35:19.318Z,0
2017-04-04T03:36:30.304Z,0
2017-04-04T03:37:41.282Z,0
2017-04-04T03:38:52.311Z,0
2017-04-04T03:40:03.299Z,0
2017-04-04T03:41:14.339Z,0
2017-04-04T03:42:25.321Z,0
2017-04-04T03:43:36.303Z,0
2017-04-04T03:44:47.489Z,0
2017-04-04T03:45:58.473Z,0
2017-04-04T03:47:09.459Z,0
2017-04-04T03:48:20.443Z,0
2017-04-04T03:49:31.425Z,0
2017-04-04T03:50:42.418Z,0
2017-04-04T03:51:53.655Z,0
2017-04-04T03:53:04.636Z,0
2017-04-04T03:54:15.633Z,0
2017-04-04T03:55:26.615Z,0
2017-04-04T03:56:37.598Z,0
2017-04-04T03:57:49.038Z,0
2017-04-04T03:59:00.228Z,0
2017-04-04T04:00:11.211Z,0
2017-04-04T04:01:22.390Z,0
2017-04-04T04:02:33.583Z,0
2017-04-04T04:03:44.567Z,0
2017-04-04T04:04:55.553Z,0
2017-04-04T04:06:06.548Z,0
2017-04-04T04:07:17.535Z,0
2017-04-04T04:08:28.578Z,0
2017-04-04T04:09:39.966Z,0
2017-04-04T04:10:50.953Z,0
2017-04-04T04:12:01.933Z,0
2017-04-04T04:13:12.917Z,0
2017-04-04T04:14:23.893Z,0
2017-04-04T04:15:34.880Z,0
2017-04-04T04:16:45.875Z,0
2017-04-04T04:17:57.057Z,0
2017-04-04T04:19:08.100Z,0
2017-04-04T04:20:19.092Z,4
2017-04-04T04:21:30.116Z,0
2017-04-04T04:22:41.105Z,0
2017-04-04T04:23:52.489Z,4
2017-04-04T04:25:03.466Z,0
2017-04-04T04:26:14.452Z,4
2017-04-04T04:27:25.665Z,4
2017-04-04T04:28:36.647Z,4
2017-04-04T04:29:47.880Z,8
2017-04-04T04:30:58.860Z,8
2017-04-04T04:32:09.839Z,8
2017-04-04T04:33:20.827Z,12
2017-04-04T04:34:31.813Z,16
2017-04-04T04:35:42.799Z,16
2017-04-04T04:36:53.786Z,24
2017-04-04T04:38:04.762Z,28
2017-04-04T04:39:15.736Z,28
2017-04-04T04:40:26.718Z,40
2017-04-04T04:41:37.697Z,44
2017-04-04T04:42:48.681Z,56
2017-04-04T04:43:59.865Z,64
2017-04-04T04:45:10.846Z,76
2017-04-04T04:46:21.875Z,88
2017-04-04T04:47:32.861Z,104
2017-04-04T04:48:43.846Z,116
2017-04-04T04:49:55.036Z,132
2017-04-04T04:51:06.029Z,156
2017-04-04T04:52:17.016Z,172
2017-04-04T04:53:27.994Z,196
2017-04-04T04:54:38.992Z,224
2017-04-04T04:55:49.977Z,252
2017-04-04T04:57:01.023Z,280
2017-04-04T04:58:12.004Z,312
2017-04-04T04:59:23.182Z,348
2017-04-04T05:00:34.177Z,380
2017-04-04T05:01:45.162Z,424
2017-04-04T05:02:56.550Z,464
2017-04-04T05:04:07.534Z,508
2017-04-04T05:05:18.723Z,556
2017-04-04T05:06:29.950Z,608
2017-04-04T05:07:41.394Z,660
2017-04-04T05:08:52.382Z,716
2017-04-04T05:10:03.373Z,776
2017-04-04T05:11:14.357Z,840
2017-04-04T05:12:25.329Z,900
2017-04-04T05:13:36.319Z,964
2017-04-04T05:14:47.900Z,1036
2017-04-04T05:15:58.893Z,1124
2017-04-04T05:17:09.870Z,1212
2017-04-04T05:18:21.265Z,1304
2017-04-04T05:19:32.246Z,1396
2017-04-04T05:20:43.431Z,1488
2017-04-04T05:21:54.411Z,1584
2017-04-04T05:23:05.397Z,1688
2017-04-04T05:24:16.829Z,1792
2017-04-04T05:25:28.013Z,1896
2017-04-04T05:26:39.199Z,2008
2017-04-04T05:27:50.188Z,2116
2017-04-04T05:29:01.166Z,2228
2017-04-04T05:30:12.150Z,2304
2017-04-04T05:31:23.137Z,2576
2017-04-04T05:32:34.126Z,3092
2017-04-04T05:33:45.129Z,3776
2017-04-04T05:34:56.360Z,3536
2017-04-04T05:36:07.347Z,3124
2017-04-04T05:37:18.323Z,3300
2017-04-04T05:38:29.714Z,4116
2017-04-04T05:39:40.698Z,5688
2017-04-04T05:40:51.887Z,5356
2017-04-04T05:42:02.873Z,5060
2017-04-04T05:43:14.257Z,6276
2017-04-04T05:44:25.247Z,7480
2017-04-04T05:45:36.268Z,9064
2017-04-04T05:46:47.253Z,11208
2017-04-04T05:47:58.238Z,13920
2017-04-04T05:49:09.420Z,14560
2017-04-04T05:50:20.461Z,10780
2017-04-04T05:51:31.450Z,6904
2017-04-04T05:52:42.451Z,6456
2017-04-04T05:53:53.468Z,9628
2017-04-04T05:55:04.452Z,9204
2017-04-04T05:56:15.449Z,8396
2017-04-04T05:57:26.444Z,7620
2017-04-04T05:58:37.635Z,6764
2017-04-04T05:59:48.815Z,8976
2017-04-04T06:00:59.871Z,10592
2017-04-04T06:02:10.852Z,11572
2017-04-04T06:03:21.840Z,12956
2017-04-04T06:04:32.825Z,13184
2017-04-04T06:05:43.823Z,9560
2017-04-04T06:06:54.818Z,11672
2017-04-04T06:08:05.808Z,12456
2017-04-04T06:09:16.806Z,13700
2017-04-04T06:10:27.799Z,15296
2017-04-04T06:11:39.039Z,20096
2017-04-04T06:12:50.043Z,20928
2017-04-04T06:14:01.032Z,22656
2017-04-04T06:15:12.025Z,17472
2017-04-04T06:16:23.620Z,15520
2017-04-04T06:17:34.611Z,19104
2017-04-04T06:18:45.638Z,18208
2017-04-04T06:19:56.640Z,14492
2017-04-04T06:21:07.628Z,13844
2017-04-04T06:22:18.864Z,12328
2017-04-04T06:23:30.057Z,12576
2017-04-04T06:24:41.249Z,16032
2017-04-04T06:25:52.239Z,15936
2017-04-04T06:27:03.223Z,15840
2017-04-04T06:28:14.265Z,17504
2017-04-04T06:29:25.254Z,18912
2017-04-04T06:30:36.247Z,19328
2017-04-04T06:31:47.435Z,23008
2017-04-04T06:32:58.617Z,29024
2017-04-04T06:34:09.606Z,30624
2017-04-04T06:35:20.798Z,34400
2017-04-04T06:36:31.793Z,36960
2017-04-04T06:37:42.778Z,35968
2017-04-04T06:38:53.976Z,31744
2017-04-04T06:40:05.020Z,32288
2017-04-04T06:41:16.013Z,35712
2017-04-04T06:42:27.004Z,37920
2017-04-04T06:43:37.997Z,42784
2017-04-04T06:44:48.991Z,44576
2017-04-04T06:46:00.188Z,45504
2017-04-04T06:47:11.185Z,43840
2017-04-04T06:48:22.174Z,42880
2017-04-04T06:49:33.421Z,44000
2017-04-04T06:50:44.624Z,45504
2017-04-04T06:51:55.625Z,49600
2017-04-04T06:53:06.623Z,52544
2017-04-04T06:54:17.618Z,55040
2017-04-04T06:55:28.653Z,56128
2017-04-04T06:56:39.659Z,56736
2017-04-04T06:57:50.854Z,56992
2017-04-04T06:59:01.850Z,57920
2017-04-04T07:00:12.843Z,59744
2017-04-04T07:01:24.043Z,60800
2017-04-04T07:02:35.246Z,60640
2017-04-04T07:03:46.246Z,59936
2017-04-04T07:04:57.264Z,59392
2017-04-04T07:06:08.273Z,60224
2017-04-04T07:07:19.280Z,61056
2017-04-04T07:08:30.288Z,62496
2017-04-04T07:09:41.697Z,62784
2017-04-04T07:10:52.897Z,62688
2017-04-04T07:12:03.900Z,63968
2017-04-04T07:13:15.310Z,65376
2017-04-04T07:14:26.511Z,63040
2017-04-04T07:15:37.523Z,60128
2017-04-04T07:16:48.783Z,58848
2017-04-04T07:17:59.997Z,61408
2017-04-04T07:19:11.009Z,63680
2017-04-04T07:20:22.042Z,64896
2017-04-04T07:21:33.247Z,62848
2017-04-04T07:22:44.244Z,62176
2017-04-04T07:23:55.246Z,63968
2017-04-04T07:25:06.257Z,64096
2017-04-04T07:26:17.523Z,64352
2017-04-04T07:27:28.527Z,64224
2017-04-04T07:28:39.736Z,65696
2017-04-04T07:29:50.748Z,66208
2017-04-04T07:31:01.752Z,64768
2017-04-04T07:32:12.750Z,64896
2017-04-04T07:33:23.754Z,66496
2017-04-04T07:34:34.765Z,65152
2017-04-04T07:35:45.813Z,63648
2017-04-04T07:36:56.868Z,63104
2017-04-04T07:38:08.075Z,65216
2017-04-04T07:39:19.089Z,65376
2017-04-04T07:40:30.088Z,64224
2017-04-04T07:41:41.099Z,64608
2017-04-04T07:42:52.300Z,65696
2017-04-04T07:44:03.310Z,62592
2017-04-04T07:45:14.521Z,62528
2017-04-04T07:46:25.525Z,64992
2017-04-04T07:47:36.533Z,66592
2017-04-04T07:48:47.742Z,67040
2017-04-04T07:49:58.746Z,67872
2017-04-04T07:51:09.756Z,66624
2017-04-04T07:52:20.754Z,66400
2017-04-04T07:53:31.764Z,67264
2017-04-04T07:54:42.775Z,68736
2017-04-04T07:55:53.787Z,71392
2017-04-04T07:57:04.801Z,71136
2017-04-04T07:58:16.067Z,70368
2017-04-04T07:59:27.077Z,70944
2017-04-04T08:00:38.080Z,71584
2017-04-04T08:01:49.084Z,68992
2017-04-04T08:03:00.090Z,65568
2017-04-04T08:04:11.294Z,66976
2017-04-04T08:05:22.304Z,71392
2017-04-04T08:06:33.312Z,72928
2017-04-04T08:07:44.321Z,71808
2017-04-04T08:08:55.382Z,70464
2017-04-04T08:10:06.585Z,70720
2017-04-04T08:11:17.602Z,71104
2017-04-04T08:12:28.817Z,70176
2017-04-04T08:13:40.050Z,71072
2017-04-04T08:14:51.266Z,70144
2017-04-04T08:16:02.897Z,70112
2017-04-04T08:17:13.913Z,68096
2017-04-04T08:18:25.129Z,69184
2017-04-04T08:19:36.184Z,69792
2017-04-04T08:20:47.398Z,70208
2017-04-04T08:21:58.417Z,71552
2017-04-04T08:23:09.476Z,71456
2017-04-04T08:24:20.488Z,73024
2017-04-04T08:25:31.695Z,73920
2017-04-04T08:26:42.715Z,73152
2017-04-04T08:27:53.727Z,72128
2017-04-04T08:29:04.978Z,71360
2017-04-04T08:30:15.988Z,68544
2017-04-04T08:31:26.994Z,66528
2017-04-04T08:32:38.021Z,68608
2017-04-04T08:33:49.031Z,71584
2017-04-04T08:35:00.040Z,70688
2017-04-04T08:36:11.304Z,73440
2017-04-04T08:37:22.316Z,76288
2017-04-04T08:38:33.370Z,76416
2017-04-04T08:39:44.785Z,72992
2017-04-04T08:40:55.785Z,68608
2017-04-04T08:42:06.798Z,69504
2017-04-04T08:43:17.799Z,72768
2017-04-04T08:44:28.805Z,76224
2017-04-04T08:45:40.021Z,78016
2017-04-04T08:46:51.490Z,77664
2017-04-04T08:48:02.503Z,75456
2017-04-04T08:49:13.513Z,73984
2017-04-04T08:50:24.524Z,72832
2017-04-04T08:51:35.746Z,70208
2017-04-04T08:52:46.953Z,67936
2017-04-04T08:53:57.969Z,70272
2017-04-04T08:55:08.993Z,68224
2017-04-04T08:56:20.206Z,69760
2017-04-04T08:57:31.486Z,74560
2017-04-04T08:58:42.515Z,80576
2017-04-04T08:59:53.533Z,74208
2017-04-04T09:01:04.558Z,75584
2017-04-04T09:02:15.782Z,77952
2017-04-04T09:03:26.853Z,73344
2017-04-04T09:04:37.863Z,71488
2017-04-04T09:05:48.868Z,72352
2017-04-04T09:07:00.090Z,69920
2017-04-04T09:08:11.111Z,70080
2017-04-04T09:09:22.131Z,69984
2017-04-04T09:10:33.145Z,71008
2017-04-04T09:11:44.360Z,69952
2017-04-04T09:12:55.371Z,68064
2017-04-04T09:14:06.384Z,72480
2017-04-04T09:15:17.453Z,70016
2017-04-04T09:16:28.459Z,71328
2017-04-04T09:17:39.675Z,69152
2017-04-04T09:18:50.687Z,71168
2017-04-04T09:20:01.906Z,71072
2017-04-04T09:21:12.932Z,68192
2017-04-04T09:22:23.960Z,67712
2017-04-04T09:23:35.173Z,68032
2017-04-04T09:24:46.230Z,70144
2017-04-04T09:25:57.237Z,68864
2017-04-04T09:27:08.254Z,70528
2017-04-04T09:28:19.257Z,72672
2017-04-04T09:29:30.315Z,73216
2017-04-04T09:30:41.526Z,70720
2017-04-04T09:31:52.536Z,67520
2017-04-04T09:33:03.745Z,69472
2017-04-04T09:34:14.747Z,71712
2017-04-04T09:35:25.803Z,72224
2017-04-04T09:36:36.819Z,71968
2017-04-04T09:37:47.833Z,75648
2017-04-04T09:38:58.845Z,75232
2017-04-04T09:40:09.856Z,72352
2017-04-04T09:41:21.123Z,70752
2017-04-04T09:42:32.172Z,73088
2017-04-04T09:43:43.193Z,77440
2017-04-04T09:44:54.206Z,75936
2017-04-04T09:46:05.219Z,76896
2017-04-04T09:47:16.238Z,80992
2017-04-04T09:48:27.253Z,78784
2017-04-04T09:49:38.469Z,76256
2017-04-04T09:50:49.484Z,74752
2017-04-04T09:52:00.748Z,75232
2017-04-04T09:53:11.760Z,74368
2017-04-04T09:54:22.771Z,76960
2017-04-04T09:55:33.778Z,78848
2017-04-04T09:56:44.789Z,77088
2017-04-04T09:57:55.802Z,76256
2017-04-04T09:59:07.015Z,79008
2017-04-04T10:00:18.027Z,78944
2017-04-04T10:01:29.057Z,78944
2017-04-04T10:02:40.127Z,79584
2017-04-04T10:03:51.149Z,75168
2017-04-04T10:05:02.157Z,75296
2017-04-04T10:06:13.170Z,78080
2017-04-04T10:07:24.584Z,73472
2017-04-04T10:08:35.596Z,73152
2017-04-04T10:09:46.610Z,74144
2017-04-04T10:10:57.616Z,75712
2017-04-04T10:12:08.627Z,72896
2017-04-04T10:13:20.092Z,76608
2017-04-04T10:14:31.307Z,71200
2017-04-04T10:15:42.323Z,72320
2017-04-04T10:16:53.341Z,67904
2017-04-04T10:18:04.362Z,61728
2017-04-04T10:19:15.434Z,59520
2017-04-04T10:20:26.440Z,62272
2017-04-04T10:21:37.457Z,62432
2017-04-04T10:22:48.463Z,62336
2017-04-04T10:23:59.477Z,61568
2017-04-04T10:25:10.488Z,61632
2017-04-04T10:26:21.709Z,61344
2017-04-04T10:27:32.734Z,60000
2017-04-04T10:28:43.744Z,60544
2017-04-04T10:29:54.762Z,61248
2017-04-04T10:31:05.830Z,59872
2017-04-04T10:32:16.837Z,60096
2017-04-04T10:33:27.850Z,57824
2017-04-04T10:34:38.853Z,57408
2017-04-04T10:35:50.071Z,57152
2017-04-04T10:37:01.082Z,57248
2017-04-04T10:38:12.096Z,55776
2017-04-04T10:39:23.114Z,53888
2017-04-04T10:40:34.381Z,56576
2017-04-04T10:41:45.796Z,52896
2017-04-04T10:42:56.811Z,53440
2017-04-04T10:44:07.819Z,53088
2017-04-04T10:45:18.827Z,49696
2017-04-04T10:46:29.859Z,49664
2017-04-04T10:47:40.878Z,51008
2017-04-04T10:48:51.925Z,54400
2017-04-04T10:50:02.930Z,54496
2017-04-04T10:51:13.990Z,54528
2017-04-04T10:52:25.209Z,51392
2017-04-04T10:53:36.217Z,49024
2017-04-04T10:54:47.228Z,49312
2017-04-04T10:55:58.442Z,49696
2017-04-04T10:57:09.705Z,51296
2017-04-04T10:58:20.718Z,46432
2017-04-04T10:59:31.922Z,46176
2017-04-04T11:00:42.939Z,44032
2017-04-04T11:01:53.949Z,44416
2017-04-04T11:03:04.956Z,42368
2017-04-04T11:04:15.949Z,40800
2017-04-04T11:05:26.964Z,39648
2017-04-04T11:06:37.971Z,43200
2017-04-04T11:07:49.430Z,40448
2017-04-04T11:09:00.437Z,38912
2017-04-04T11:10:11.451Z,36864
2017-04-04T11:11:22.453Z,35840
2017-04-04T11:12:33.663Z,36800
2017-04-04T11:13:44.687Z,39200
2017-04-04T11:14:55.699Z,38112
2017-04-04T11:16:06.706Z,37664
2017-04-04T11:17:17.932Z,40544
2017-04-04T11:18:28.997Z,46688
2017-04-04T11:19:40.413Z,57664
2017-04-04T11:20:51.626Z,55744
2017-04-04T11:22:02.638Z,37536
2017-04-04T11:23:13.849Z,22848
2017-04-04T11:24:24.862Z,20800
2017-04-04T11:25:35.888Z,22304
2017-04-04T11:26:46.904Z,23168
2017-04-04T11:27:57.917Z,22784
2017-04-04T11:29:09.180Z,22304
2017-04-04T11:30:20.397Z,22464
2017-04-04T11:31:31.410Z,23424
2017-04-04T11:32:42.622Z,23456
2017-04-04T11:33:54.026Z,24736
2017-04-04T11:35:05.088Z,24768
2017-04-04T11:36:16.304Z,25120
2017-04-04T11:37:27.312Z,26464
2017-04-04T11:38:38.316Z,25760
2017-04-04T11:39:49.320Z,27616
2017-04-04T11:41:00.336Z,29632
2017-04-04T11:42:11.344Z,29152
2017-04-04T11:43:22.555Z,28096
2017-04-04T11:44:33.576Z,30208
2017-04-04T11:45:44.643Z,32160
2017-04-04T11:46:55.653Z,30592
2017-04-04T11:48:06.659Z,31136
2017-04-04T11:49:17.659Z,29632
2017-04-04T11:50:28.681Z,30144
2017-04-04T11:51:39.703Z,29824
2017-04-04T11:52:50.713Z,28896
2017-04-04T11:54:01.719Z,28768
2017-04-04T11:55:12.727Z,28352
2017-04-04T11:56:23.797Z,28032
2017-04-04T11:57:34.808Z,28192
2017-04-04T11:58:46.018Z,26624
2017-04-04T11:59:57.029Z,26240
2017-04-04T12:01:08.047Z,27360
2017-04-04T12:02:19.252Z,26912
2017-04-04T12:03:30.459Z,25984
2017-04-04T12:04:41.463Z,24256
2017-04-04T12:05:52.677Z,24256
2017-04-04T12:07:03.931Z,23552
2017-04-04T12:08:14.936Z,23168
2017-04-04T12:09:25.953Z,21696
2017-04-04T12:10:36.959Z,20672
2017-04-04T12:11:47.958Z,21216
2017-04-04T12:12:59.018Z,21696
2017-04-04T12:14:10.237Z,21408
2017-04-04T12:15:21.248Z,20992
2017-04-04T12:16:32.270Z,20864
2017-04-04T12:17:43.486Z,21152
2017-04-04T12:18:54.504Z,20768
2017-04-04T12:20:05.713Z,20576
2017-04-04T12:21:16.718Z,19776
2017-04-04T12:22:27.927Z,18656
2017-04-04T12:23:39.182Z,18720
2017-04-04T12:24:50.187Z,18528
2017-04-04T12:26:01.395Z,18144
2017-04-04T12:27:12.408Z,18112
2017-04-04T12:28:23.409Z,17312
2017-04-04T12:29:34.413Z,15808
2017-04-04T12:30:45.615Z,15776
2017-04-04T12:31:56.617Z,15904
2017-04-04T12:33:07.626Z,15392
2017-04-04T12:34:18.891Z,15136
2017-04-04T12:35:29.899Z,14260
2017-04-04T12:36:40.911Z,13928
2017-04-04T12:37:51.918Z,13784
2017-04-04T12:39:02.931Z,12780
2017-04-04T12:40:13.939Z,11996
2017-04-04T12:41:25.155Z,11688
2017-04-04T12:42:36.160Z,11348
2017-04-04T12:43:47.167Z,10844
2017-04-04T12:44:58.624Z,10236
2017-04-04T12:46:09.623Z,9968
2017-04-04T12:47:20.630Z,9972
2017-04-04T12:48:31.635Z,9696
2017-04-04T12:49:42.646Z,9444
2017-04-04T12:50:53.704Z,9508
2017-04-04T12:52:04.710Z,9612
2017-04-04T12:53:15.726Z,9692
2017-04-04T12:54:26.741Z,9564
2017-04-04T12:55:37.954Z,9496
2017-04-04T12:56:49.155Z,9360
2017-04-04T12:58:00.160Z,9204
2017-04-04T12:59:11.190Z,9052
2017-04-04T13:00:22.197Z,8728
2017-04-04T13:01:33.392Z,8584
2017-04-04T13:02:44.847Z,8644
2017-04-04T13:03:55.858Z,8540
2017-04-04T13:05:06.881Z,8276
2017-04-04T13:06:17.882Z,8144
2017-04-04T13:07:28.898Z,8284
2017-04-04T13:08:39.896Z,8260
2017-04-04T13:09:50.900Z,8384
2017-04-04T13:11:01.900Z,8400
2017-04-04T13:12:13.164Z,8308
2017-04-04T13:13:24.372Z,8132
2017-04-04T13:14:35.376Z,7880
2017-04-04T13:15:46.387Z,8068
2017-04-04T13:16:57.392Z,7840
2017-04-04T13:18:08.390Z,8004
2017-04-04T13:19:19.402Z,8048
2017-04-04T13:20:30.402Z,8128
2017-04-04T13:21:41.612Z,8196
2017-04-04T13:22:52.877Z,8096
2017-04-04T13:24:03.875Z,7872
2017-04-04T13:25:14.877Z,7700
2017-04-04T13:26:26.086Z,7732
2017-04-04T13:27:37.092Z,7664
2017-04-04T13:28:48.090Z,7572
2017-04-04T13:29:59.099Z,7324
2017-04-04T13:31:10.111Z,7320
2017-04-04T13:32:21.316Z,7552
2017-04-04T13:33:32.315Z,7656
2017-04-04T13:34:43.316Z,7648
2017-04-04T13:35:54.333Z,7508
2017-04-04T13:37:05.330Z,7532
2017-04-04T13:38:16.730Z,7764
2017-04-04T13:39:27.928Z,7788
2017-04-04T13:40:38.921Z,7608
2017-04-04T13:41:49.914Z,8024
2017-04-04T13:43:00.911Z,8052
2017-04-04T13:44:11.960Z,8064
2017-04-04T13:45:22.966Z,8312
2017-04-04T13:46:34.170Z,8076
2017-04-04T13:47:45.165Z,7872
2017-04-04T13:48:56.363Z,7896
2017-04-04T13:50:07.561Z,8080
2017-04-04T13:51:18.558Z,7836
2017-04-04T13:52:29.563Z,7388
2017-04-04T13:53:40.567Z,7520
2017-04-04T13:54:51.820Z,7932
2017-04-04T13:56:03.022Z,8096
2017-04-04T13:57:14.218Z,8252
2017-04-04T13:58:25.209Z,8388
2017-04-04T13:59:36.209Z,8420
2017-04-04T14:00:47.257Z,8516
2017-04-04T14:01:58.258Z,8488
2017-04-04T14:03:09.253Z,8380
2017-04-04T14:04:20.255Z,8556
2017-04-04T14:05:31.510Z,8572
2017-04-04T14:06:42.508Z,8688
2017-04-04T14:07:53.731Z,8672
2017-04-04T14:09:04.938Z,8696
2017-04-04T14:10:15.937Z,8796
2017-04-04T14:11:26.933Z,9108
2017-04-04T14:12:37.936Z,8364
2017-04-04T14:13:48.927Z,7444
2017-04-04T14:14:59.931Z,7628
2017-04-04T14:16:10.933Z,9100
2017-04-04T14:17:21.933Z,9820
2017-04-04T14:18:32.931Z,9280
2017-04-04T14:19:43.941Z,9520
2017-04-04T14:20:54.942Z,9616
2017-04-04T14:22:06.198Z,9476
2017-04-04T14:23:17.195Z,9956
2017-04-04T14:24:28.193Z,9524
2017-04-04T14:25:39.193Z,9408
2017-04-04T14:26:50.432Z,9556
2017-04-04T14:28:01.421Z,9376
2017-04-04T14:29:12.425Z,9244
2017-04-04T14:30:23.433Z,9136
2017-04-04T14:31:34.426Z,8368
2017-04-04T14:32:45.481Z,8656
2017-04-04T14:33:56.479Z,9256
2017-04-04T14:35:07.477Z,8012
2017-04-04T14:36:18.473Z,6456
2017-04-04T14:37:29.473Z,5676
2017-04-04T14:38:40.673Z,5612
2017-04-04T14:39:51.865Z,5596
2017-04-04T14:41:02.911Z,5528
2017-04-04T14:42:13.904Z,5468
2017-04-04T14:43:25.155Z,5412
2017-04-04T14:44:36.164Z,5364
2017-04-04T14:45:47.161Z,5332
2017-04-04T14:46:58.355Z,5328
2017-04-04T14:48:09.353Z,5340
2017-04-04T14:49:20.400Z,5300
2017-04-04T14:50:31.399Z,5264
2017-04-04T14:51:42.599Z,5248
2017-04-04T14:52:53.801Z,5220
2017-04-04T14:54:04.856Z,5180
2017-04-04T14:55:15.854Z,5120
2017-04-04T14:56:27.058Z,5056
2017-04-04T14:57:38.055Z,5036
2017-04-04T14:58:49.044Z,4992
2017-04-04T15:00:00.043Z,4992
2017-04-04T15:01:11.292Z,4968
2017-04-04T15:02:22.293Z,4940
2017-04-04T15:03:33.337Z,4912
2017-04-04T15:04:44.333Z,4924
2017-04-04T15:05:55.536Z,4908
2017-04-04T15:07:06.541Z,4900
2017-04-04T15:08:17.566Z,4852
2017-04-04T15:09:28.564Z,4808
2017-04-04T15:10:39.601Z,4780
2017-04-04T15:11:50.607Z,4756
2017-04-04T15:13:02.005Z,4720
2017-04-04T15:14:13.203Z,4688
2017-04-04T15:15:24.396Z,4680
2017-04-04T15:16:35.392Z,4668
2017-04-04T15:17:46.395Z,4636
2017-04-04T15:18:57.383Z,4624
2017-04-04T15:20:08.583Z,4600
2017-04-04T15:21:19.830Z,4580
2017-04-04T15:22:31.018Z,4560
2017-04-04T15:23:42.237Z,4516
2017-04-04T15:24:53.230Z,4472
2017-04-04T15:26:04.229Z,4444
2017-04-04T15:27:15.474Z,4440
2017-04-04T15:28:26.467Z,4428
2017-04-04T15:29:37.463Z,4396
2017-04-04T15:30:48.461Z,4384
2017-04-04T15:31:59.459Z,4392
2017-04-04T15:33:10.460Z,4364
2017-04-04T15:34:21.456Z,4336
2017-04-04T15:35:32.651Z,4292
2017-04-04T15:36:43.652Z,4256
2017-04-04T15:37:54.706Z,4232
2017-04-04T15:39:05.914Z,4228
2017-04-04T15:40:16.915Z,4196
2017-04-04T15:41:27.903Z,4188
2017-04-04T15:42:38.894Z,4164
2017-04-04T15:43:49.897Z,4124
2017-04-04T15:45:00.896Z,4100
2017-04-04T15:46:11.894Z,4068
2017-04-04T15:47:22.906Z,4040
2017-04-04T15:48:33.962Z,4012
2017-04-04T15:49:44.963Z,3980
2017-04-04T15:50:55.966Z,3960
2017-04-04T15:52:06.957Z,3980
2017-04-04T15:53:17.958Z,3972
2017-04-04T15:54:29.175Z,3936
2017-04-04T15:55:40.364Z,3940
2017-04-04T15:56:51.378Z,3956
2017-04-04T15:58:02.773Z,3948
2017-04-04T15:59:13.816Z,3964
2017-04-04T16:00:25.020Z,3956
2017-04-04T16:01:36.023Z,3916